createdAt,value
2023-02-19T00:00:34.900Z,6.28
2023-02-19T00:01:42.107Z,6.26
2023-02-19T00:02:46.936Z,6.31
2023-02-19T00:03:53.096Z,6.25
2023-02-19T00:04:59.867Z,6.24
2023-02-19T00:06:03.828Z,6.22
2023-02-19T00:07:08.648Z,6.27
2023-02-19T00:08:10.855Z,6.25
2023-02-19T00:09:17.176Z,6.23
2023-02-19T00:10:21.451Z,6.21
2023-02-19T00:11:32.260Z,6.23
2023-02-19T00:12:47.179Z,6.21
2023-02-19T00:13:51.352Z,6.27
2023-02-19T00:14:58.965Z,6.28
2023-02-19T00:16:06.338Z,6.29
2023-02-19T00:17:11.584Z,6.28
2023-02-19T00:18:13.648Z,6.35
2023-02-19T00:19:20.471Z,6.40
2023-02-19T00:20:22.697Z,6.33
2023-02-19T00:21:28.845Z,6.37
2023-02-19T00:22:30.909Z,6.39
2023-02-19T00:23:36.252Z,6.36
2023-02-19T00:24:38.373Z,6.35
2023-02-19T00:25:43.173Z,6.36
2023-02-19T00:26:49.478Z,6.40
2023-02-19T00:27:51.641Z,6.42
2023-02-19T00:28:57.983Z,6.37
2023-02-19T00:30:02.742Z,6.40
2023-02-19T00:31:15.551Z,6.35
2023-02-19T00:32:20.615Z,6.37
2023-02-19T00:33:22.798Z,6.37
2023-02-19T00:34:28.645Z,6.38
2023-02-19T00:35:30.760Z,6.36
2023-02-19T00:36:36.832Z,6.42
2023-02-19T00:37:43.683Z,6.41
2023-02-19T00:38:49.618Z,6.37
2023-02-19T00:39:52.021Z,6.39
2023-02-19T00:41:00.172Z,6.40
2023-02-19T00:42:02.484Z,6.38
2023-02-19T00:43:07.607Z,6.43
2023-02-19T00:44:12.291Z,6.44
2023-02-19T00:45:20.073Z,6.40
2023-02-19T00:46:24.278Z,6.41
2023-02-19T00:47:29.296Z,6.42
2023-02-19T00:48:31.399Z,6.41
2023-02-19T00:49:36.278Z,6.41
2023-02-19T00:50:39.152Z,6.47
2023-02-19T00:51:43.885Z,6.47
2023-02-19T00:52:46.020Z,6.43
2023-02-19T00:53:51.093Z,6.45
2023-02-19T00:54:53.436Z,6.44
2023-02-19T00:55:58.340Z,6.44
2023-02-19T00:57:00.477Z,6.47
2023-02-19T00:58:05.305Z,6.43
2023-02-19T00:59:07.665Z,6.43
2023-02-19T01:00:14.747Z,6.41
2023-02-19T01:01:20.356Z,6.43
2023-02-19T01:02:25.134Z,6.45
2023-02-19T01:03:27.404Z,6.44
2023-02-19T01:04:32.342Z,6.44
2023-02-19T01:05:34.401Z,6.43
2023-02-19T01:06:39.962Z,6.48
2023-02-19T01:07:42.049Z,6.49
2023-02-19T01:08:47.263Z,6.47
2023-02-19T01:09:49.367Z,6.48
2023-02-19T01:10:54.359Z,6.52
2023-02-19T01:11:59.172Z,6.45
2023-02-19T01:13:01.208Z,6.47
2023-02-19T01:14:07.671Z,6.46
2023-02-19T01:15:09.865Z,6.43
2023-02-19T01:16:17.173Z,6.43
2023-02-19T01:17:24.602Z,6.44
2023-02-19T01:18:26.665Z,6.50
2023-02-19T01:19:34.143Z,6.46
2023-02-19T01:20:42.854Z,6.47
2023-02-19T01:21:47.935Z,6.47
2023-02-19T01:22:49.942Z,6.49
2023-02-19T01:23:56.060Z,6.52
2023-02-19T01:24:58.480Z,6.54
2023-02-19T01:26:03.432Z,6.50
2023-02-19T01:27:05.632Z,6.50
2023-02-19T01:28:12.157Z,6.46
2023-02-19T01:29:16.964Z,6.46
2023-02-19T01:30:19.100Z,6.47
2023-02-19T01:31:26.832Z,6.47
2023-02-19T01:32:31.666Z,6.45
2023-02-19T01:33:36.906Z,6.43
2023-02-19T01:34:40.797Z,6.42
2023-02-19T01:35:45.708Z,6.46
2023-02-19T01:36:47.787Z,6.44
2023-02-19T01:37:52.766Z,6.45
2023-02-19T01:38:55.380Z,6.47
2023-02-19T01:40:02.595Z,6.44
2023-02-19T01:41:07.596Z,6.43
2023-02-19T01:42:19.708Z,6.44
2023-02-19T01:43:22.010Z,6.43
2023-02-19T01:45:00.126Z,6.43
2023-02-19T01:46:06.982Z,6.42
2023-02-19T01:47:09.421Z,6.45
2023-02-19T01:48:21.896Z,6.44
2023-02-19T01:49:27.767Z,6.53
2023-02-19T01:50:36.155Z,6.50
2023-02-19T01:51:48.424Z,6.47
2023-02-19T01:52:50.514Z,6.48
2023-02-19T01:53:58.282Z,6.48
2023-02-19T01:55:02.919Z,6.46
2023-02-19T01:56:10.575Z,6.42
2023-02-19T01:57:17.505Z,6.42
2023-02-19T01:58:22.622Z,6.42
2023-02-19T01:59:25.369Z,6.43
2023-02-19T02:00:30.752Z,6.45
2023-02-19T02:01:33.591Z,6.48
2023-02-19T02:02:38.702Z,6.45
2023-02-19T02:03:50.642Z,6.47
2023-02-19T02:04:52.832Z,6.44
2023-02-19T02:06:03.361Z,6.44
2023-02-19T02:07:27.392Z,6.44
2023-02-19T02:08:50.996Z,6.44
2023-02-19T02:10:08.584Z,6.44
2023-02-19T02:11:13.884Z,6.41
2023-02-19T02:12:16.039Z,6.43
2023-02-19T02:13:21.156Z,6.47
2023-02-19T02:14:28.222Z,6.41
2023-02-19T02:15:43.438Z,6.42
2023-02-19T02:16:55.003Z,6.46
2023-02-19T02:18:00.197Z,6.44
2023-02-19T02:19:25.151Z,6.45
2023-02-19T02:20:54.377Z,6.43
2023-02-19T02:22:13.127Z,6.44
2023-02-19T02:23:24.290Z,6.46
2023-02-19T02:25:06.486Z,6.42
2023-02-19T02:26:30.800Z,6.41
2023-02-19T02:27:46.631Z,6.39
2023-02-19T02:29:17.522Z,6.39
2023-02-19T02:30:42.887Z,6.39
2023-02-19T02:31:52.620Z,6.40
2023-02-19T02:33:01.218Z,6.37
2023-02-19T02:34:12.989Z,6.39
2023-02-19T02:35:20.427Z,6.40
2023-02-19T02:36:30.290Z,6.33
2023-02-19T02:37:36.852Z,6.40
2023-02-19T02:38:45.763Z,6.39
2023-02-19T02:39:49.184Z,6.38
2023-02-19T02:40:55.412Z,6.32
2023-02-19T02:42:14.782Z,6.36
2023-02-19T02:43:19.510Z,6.34
2023-02-19T02:44:21.672Z,6.32
2023-02-19T02:45:36.582Z,6.38
2023-02-19T02:46:48.510Z,6.37
2023-02-19T02:47:53.328Z,6.36
2023-02-19T02:49:00.903Z,6.33
2023-02-19T02:50:06.246Z,6.38
2023-02-19T02:51:19.057Z,6.37
2023-02-19T02:52:36.756Z,6.29
2023-02-19T02:53:58.936Z,6.34
2023-02-19T02:55:03.875Z,6.35
2023-02-19T02:56:12.424Z,6.28
2023-02-19T02:57:17.186Z,6.30
2023-02-19T02:58:27.489Z,6.34
2023-02-19T02:59:36.227Z,6.29
2023-02-19T03:00:55.020Z,6.35
2023-02-19T03:02:13.649Z,6.31
2023-02-19T03:03:20.377Z,6.31
2023-02-19T03:04:36.161Z,6.30
2023-02-19T03:05:53.461Z,6.25
2023-02-19T03:07:00.140Z,6.26
2023-02-19T03:08:06.740Z,6.29
2023-02-19T03:09:21.585Z,6.27
2023-02-19T03:10:29.636Z,6.26
2023-02-19T03:11:48.096Z,6.24
2023-02-19T03:13:08.136Z,6.24
2023-02-19T03:14:29.689Z,6.24
2023-02-19T03:15:52.742Z,6.28
2023-02-19T03:17:17.962Z,6.26
2023-02-19T03:20:09.185Z,6.31
2023-02-19T03:23:48.458Z,6.24
2023-02-19T03:28:22.038Z,6.27
2023-02-19T03:29:26.286Z,6.27
2023-02-19T03:30:35.097Z,6.27
2023-02-19T03:31:40.075Z,6.23
2023-02-19T03:32:51.606Z,6.22
2023-02-19T03:33:56.893Z,6.23
2023-02-19T03:35:06.368Z,6.24
2023-02-19T03:36:15.853Z,6.26
2023-02-19T03:37:28.050Z,6.24
2023-02-19T03:38:37.719Z,6.20
2023-02-19T03:39:47.237Z,6.22
2023-02-19T03:41:02.090Z,6.22
2023-02-19T03:42:17.647Z,6.18
2023-02-19T03:43:24.501Z,6.18
2023-02-19T03:44:39.996Z,6.24
2023-02-19T03:45:49.904Z,6.20
2023-02-19T03:46:59.172Z,6.22
2023-02-19T03:48:23.652Z,6.22
2023-02-19T03:49:35.588Z,6.20
2023-02-19T03:50:45.529Z,6.21
2023-02-19T03:51:56.714Z,6.15
2023-02-19T03:53:09.503Z,6.23
2023-02-19T03:54:20.012Z,6.16
2023-02-19T03:55:28.336Z,6.18
2023-02-19T03:56:39.116Z,6.17
2023-02-19T03:58:03.215Z,6.23
2023-02-19T04:00:38.993Z,6.17
2023-02-19T04:01:48.920Z,6.18
2023-02-19T04:02:56.936Z,6.24
2023-02-19T04:04:11.865Z,6.16
2023-02-19T04:05:17.169Z,6.17
2023-02-19T04:06:28.676Z,6.17
2023-02-19T04:07:35.205Z,6.16
2023-02-19T04:08:42.785Z,6.17
2023-02-19T04:09:49.163Z,6.13
2023-02-19T04:10:56.149Z,6.15
2023-02-19T04:12:02.389Z,6.18
2023-02-19T04:13:09.487Z,6.19
2023-02-19T04:14:19.392Z,6.14
2023-02-19T04:15:25.645Z,6.15
2023-02-19T04:16:32.835Z,6.15
2023-02-19T04:17:39.378Z,6.18
2023-02-19T04:18:47.999Z,6.17
2023-02-19T04:19:55.078Z,6.12
2023-02-19T04:21:03.877Z,6.11
2023-02-19T04:22:09.928Z,6.12
2023-02-19T04:23:15.268Z,6.06
2023-02-19T04:24:23.303Z,6.09
2023-02-19T04:25:30.570Z,6.08
2023-02-19T04:26:33.908Z,6.10
2023-02-19T04:27:39.872Z,6.09
2023-02-19T04:28:43.870Z,6.07
2023-02-19T04:29:49.381Z,6.10
2023-02-19T04:30:51.743Z,6.02
2023-02-19T04:31:56.452Z,6.01
2023-02-19T04:32:58.486Z,6.07
2023-02-19T04:34:03.994Z,6.00
2023-02-19T04:35:11.776Z,6.03
2023-02-19T04:36:16.454Z,6.04
2023-02-19T04:37:21.313Z,6.01
2023-02-19T04:38:23.435Z,5.99
2023-02-19T04:39:28.616Z,5.96
2023-02-19T04:40:33.740Z,5.98
2023-02-19T04:41:38.597Z,6.01
2023-02-19T04:42:40.717Z,5.99
2023-02-19T04:43:45.465Z,5.97
2023-02-19T04:44:47.792Z,5.99
2023-02-19T04:46:12.687Z,5.98
2023-02-19T04:47:17.974Z,5.98
2023-02-19T04:48:22.705Z,5.96
2023-02-19T04:49:31.941Z,5.93
2023-02-19T04:50:41.368Z,5.95
2023-02-19T04:51:43.509Z,5.97
2023-02-19T04:52:49.892Z,5.97
2023-02-19T04:53:52.071Z,5.95
2023-02-19T04:54:57.453Z,5.96
2023-02-19T04:56:07.577Z,6.01
2023-02-19T04:57:12.310Z,6.00
2023-02-19T04:58:14.855Z,5.94
2023-02-19T04:59:19.497Z,5.97
2023-02-19T05:00:21.847Z,5.97
2023-02-19T05:01:26.601Z,5.94
2023-02-19T05:02:28.731Z,5.91
2023-02-19T05:03:35.265Z,5.93
2023-02-19T05:04:37.427Z,5.94
2023-02-19T05:05:44.954Z,5.95
2023-02-19T05:06:46.969Z,5.93
2023-02-19T05:07:51.693Z,5.92
2023-02-19T05:08:53.914Z,5.90
2023-02-19T05:09:59.905Z,5.90
2023-02-19T05:11:03.364Z,5.90
2023-02-19T05:12:14.358Z,5.87
2023-02-19T05:13:16.548Z,5.84
2023-02-19T05:14:21.438Z,5.82
2023-02-19T05:15:23.567Z,5.77
2023-02-19T05:16:29.127Z,5.76
2023-02-19T05:17:33.701Z,5.73
2023-02-19T05:19:21.765Z,5.75
2023-02-19T05:21:36.896Z,5.77
2023-02-19T05:22:38.913Z,5.74
2023-02-19T05:23:43.965Z,5.72
2023-02-19T05:24:45.994Z,5.73
2023-02-19T05:25:51.719Z,5.70
2023-02-19T05:26:53.753Z,5.70
2023-02-19T05:28:17.201Z,5.67
2023-02-19T05:29:19.382Z,5.68
2023-02-19T05:30:47.417Z,5.65
2023-02-19T05:34:00.332Z,5.68
2023-02-19T05:35:02.591Z,5.60
2023-02-19T05:36:10.816Z,5.59
2023-02-19T05:37:16.486Z,5.57
2023-02-19T05:38:22.137Z,5.56
2023-02-19T05:39:24.269Z,5.56
2023-02-19T05:40:31.498Z,5.57
2023-02-19T05:41:33.942Z,5.53
2023-02-19T05:42:38.581Z,5.54
2023-02-19T05:43:42.123Z,5.55
2023-02-19T05:44:47.081Z,5.52
2023-02-19T05:45:49.128Z,5.53
2023-02-19T05:46:53.824Z,5.51
2023-02-19T05:48:04.077Z,5.51
2023-02-19T05:49:08.779Z,5.46
2023-02-19T05:50:10.933Z,5.50
2023-02-19T05:51:23.408Z,5.45
2023-02-19T05:52:28.120Z,5.47
2023-02-19T05:53:33.625Z,5.46
2023-02-19T05:54:35.795Z,5.46
2023-02-19T05:55:40.517Z,5.47
2023-02-19T05:56:42.761Z,5.50
2023-02-19T05:57:50.038Z,5.48
2023-02-19T05:58:52.815Z,5.45
2023-02-19T05:59:57.459Z,5.47
2023-02-19T06:00:59.561Z,5.43
2023-02-19T06:02:04.527Z,5.44
2023-02-19T06:03:06.633Z,5.43
2023-02-19T06:04:13.291Z,5.45
2023-02-19T06:05:18.277Z,5.45
2023-02-19T06:06:23.451Z,5.45
2023-02-19T06:07:28.421Z,5.41
2023-02-19T06:08:33.142Z,5.40
2023-02-19T06:09:35.527Z,5.39
2023-02-19T06:10:41.563Z,5.39
2023-02-19T06:11:44.272Z,5.39
2023-02-19T06:12:55.135Z,5.38
2023-02-19T06:13:57.639Z,5.37
2023-02-19T06:15:02.328Z,5.39
2023-02-19T06:16:04.949Z,5.38
2023-02-19T06:17:09.853Z,5.38
2023-02-19T06:18:17.045Z,5.40
2023-02-19T06:19:21.928Z,5.38
2023-02-19T06:20:26.054Z,5.36
2023-02-19T06:21:31.186Z,5.37
2023-02-19T06:22:37.026Z,5.37
2023-02-19T06:23:42.863Z,5.35
2023-02-19T06:24:44.890Z,5.35
2023-02-19T06:25:51.628Z,5.34
2023-02-19T06:26:56.406Z,5.37
2023-02-19T06:27:58.582Z,5.35
2023-02-19T06:29:03.660Z,5.34
2023-02-19T06:30:06.821Z,5.34
2023-02-19T06:31:15.229Z,5.35
2023-02-19T06:32:20.997Z,5.34
2023-02-19T06:33:23.109Z,5.32
2023-02-19T06:34:28.157Z,5.30
2023-02-19T06:35:30.122Z,5.30
2023-02-19T06:36:36.029Z,5.31
2023-02-19T06:37:40.679Z,5.30
2023-02-19T06:38:45.886Z,5.30
2023-02-19T06:39:47.969Z,5.33
2023-02-19T06:40:52.615Z,5.34
2023-02-19T06:41:55.893Z,5.38
2023-02-19T06:43:00.727Z,5.36
2023-02-19T06:44:17.412Z,5.37
2023-02-19T06:45:22.242Z,5.40
2023-02-19T06:46:27.113Z,5.38
2023-02-19T06:47:38.212Z,5.43
2023-02-19T06:48:41.661Z,5.43
2023-02-19T06:49:47.911Z,5.40
2023-02-19T06:51:08.028Z,5.37
2023-02-19T06:52:14.702Z,5.41
2023-02-19T06:53:24.646Z,5.36
2023-02-19T06:54:34.090Z,5.35
2023-02-19T06:55:36.827Z,5.39
2023-02-19T06:56:46.937Z,5.39
2023-02-19T06:57:52.881Z,5.37
2023-02-19T06:59:03.014Z,5.37
2023-02-19T07:02:46.577Z,5.35
2023-02-19T07:04:04.186Z,5.36
2023-02-19T07:05:10.433Z,5.37
2023-02-19T07:06:19.527Z,5.41
2023-02-19T07:07:27.574Z,5.42
2023-02-19T07:08:36.296Z,5.42
2023-02-19T07:09:42.438Z,5.39
2023-02-19T07:10:47.039Z,5.38
2023-02-19T07:11:54.951Z,5.39
2023-02-19T07:13:00.334Z,5.38
2023-02-19T07:14:18.529Z,5.41
2023-02-19T07:15:23.236Z,5.42
2023-02-19T07:16:28.370Z,5.45
2023-02-19T07:17:30.639Z,5.45
2023-02-19T07:18:35.692Z,5.45
2023-02-19T07:19:37.794Z,5.46
2023-02-19T07:20:42.885Z,5.48
2023-02-19T07:21:45.301Z,5.51
2023-02-19T07:22:51.726Z,5.56
2023-02-19T07:24:00.748Z,5.55
2023-02-19T07:25:07.966Z,5.57
2023-02-19T07:26:11.846Z,5.56
2023-02-19T07:27:20.655Z,5.60
2023-02-19T07:28:23.081Z,5.61
2023-02-19T07:29:30.338Z,5.61
2023-02-19T07:30:41.666Z,5.55
2023-02-19T07:31:49.833Z,5.54
2023-02-19T07:32:54.360Z,5.56
2023-02-19T07:33:59.697Z,5.58
2023-02-19T07:35:02.954Z,5.61
2023-02-19T07:36:12.804Z,5.60
2023-02-19T07:37:15.019Z,5.61
2023-02-19T07:38:26.518Z,5.63
2023-02-19T07:39:34.956Z,5.65
2023-02-19T07:40:37.745Z,5.63
2023-02-19T07:41:42.995Z,5.67
2023-02-19T07:42:44.992Z,5.72
2023-02-19T07:43:49.682Z,5.75
2023-02-19T07:44:51.807Z,5.76
2023-02-19T07:45:56.885Z,5.78
2023-02-19T07:47:01.644Z,5.79
2023-02-19T07:48:04.358Z,5.75
2023-02-19T07:49:12.002Z,5.82
2023-02-19T07:50:14.171Z,5.76
2023-02-19T07:51:22.081Z,5.84
2023-02-19T07:52:24.276Z,5.77
2023-02-19T07:53:30.328Z,5.78
2023-02-19T07:54:39.860Z,5.75
2023-02-19T07:55:42.184Z,5.79
2023-02-19T07:56:48.151Z,5.82
2023-02-19T07:57:50.448Z,5.82
2023-02-19T07:58:55.334Z,5.83
2023-02-19T07:59:57.656Z,5.88
2023-02-19T08:01:18.742Z,5.87
2023-02-19T08:02:36.929Z,5.80
2023-02-19T08:03:43.434Z,5.87
2023-02-19T08:05:00.929Z,5.95
2023-02-19T08:06:03.654Z,6.01
2023-02-19T08:07:23.824Z,6.02
2023-02-19T08:08:25.974Z,6.03
2023-02-19T08:09:31.988Z,6.07
2023-02-19T08:10:52.238Z,6.00
2023-02-19T08:12:12.700Z,6.04
2023-02-19T08:13:19.783Z,6.08
2023-02-19T08:14:28.031Z,6.12
2023-02-19T08:15:30.388Z,6.12
2023-02-19T08:16:42.870Z,6.06
2023-02-19T08:17:45.545Z,6.17
2023-02-19T08:18:50.987Z,6.26
2023-02-19T08:19:53.164Z,6.16
2023-02-19T08:20:58.931Z,6.14
2023-02-19T08:22:01.213Z,6.14
2023-02-19T08:23:05.959Z,6.13
2023-02-19T08:24:08.386Z,6.13
2023-02-19T08:25:21.440Z,6.16
2023-02-19T08:26:32.913Z,6.14
2023-02-19T08:27:41.495Z,6.23
2023-02-19T08:28:51.740Z,6.12
2023-02-19T08:29:58.671Z,6.24
2023-02-19T08:31:18.721Z,6.19
2023-02-19T08:32:25.172Z,6.21
2023-02-19T08:33:30.584Z,6.20
2023-02-19T08:34:36.302Z,6.25
2023-02-19T08:35:39.185Z,6.38
2023-02-19T08:36:44.673Z,6.28
2023-02-19T08:37:47.142Z,6.27
2023-02-19T08:38:52.334Z,6.28
2023-02-19T08:39:54.828Z,6.35
2023-02-19T08:40:59.737Z,6.37
2023-02-19T08:42:08.069Z,6.36
2023-02-19T08:43:12.064Z,6.32
2023-02-19T08:44:16.886Z,6.38
2023-02-19T08:45:20.016Z,6.41
2023-02-19T08:46:25.642Z,6.47
2023-02-19T08:47:27.886Z,6.46
2023-02-19T08:48:32.967Z,6.49
2023-02-19T08:49:35.186Z,6.57
2023-02-19T08:50:41.042Z,6.67
2023-02-19T08:51:43.183Z,6.72
2023-02-19T08:52:48.245Z,6.67
2023-02-19T08:53:53.279Z,6.71
2023-02-19T08:54:55.514Z,6.58
2023-02-19T08:56:00.550Z,6.66
2023-02-19T08:57:07.169Z,6.67
2023-02-19T08:58:13.899Z,6.73
2023-02-19T08:59:20.484Z,6.84
2023-02-19T09:00:23.095Z,6.90
2023-02-19T09:01:27.731Z,6.86
2023-02-19T09:02:30.291Z,7.00
2023-02-19T09:03:34.966Z,6.94
2023-02-19T09:04:38.387Z,7.07
2023-02-19T09:05:43.463Z,6.98
2023-02-19T09:06:45.600Z,7.00
2023-02-19T09:07:50.381Z,6.85
2023-02-19T09:08:55.237Z,6.86
2023-02-19T09:10:00.147Z,6.78
2023-02-19T09:11:07.620Z,6.78
2023-02-19T09:12:13.388Z,6.78
2023-02-19T09:13:18.269Z,6.77
2023-02-19T09:14:20.362Z,6.87
2023-02-19T09:15:25.426Z,6.89
2023-02-19T09:16:30.144Z,6.81
2023-02-19T09:17:32.551Z,6.90
2023-02-19T09:18:37.420Z,7.02
2023-02-19T09:19:39.508Z,6.84
2023-02-19T09:20:44.210Z,6.91
2023-02-19T09:21:49.081Z,6.81
2023-02-19T09:22:59.107Z,6.80
2023-02-19T09:24:01.321Z,6.92
2023-02-19T09:25:06.147Z,6.88
2023-02-19T09:26:10.190Z,7.01
2023-02-19T09:27:22.927Z,6.87
2023-02-19T09:28:24.981Z,6.87
2023-02-19T09:29:31.199Z,6.99
2023-02-19T09:30:33.367Z,7.05
2023-02-19T09:31:38.141Z,6.91
2023-02-19T09:32:40.291Z,6.91
2023-02-19T09:33:46.137Z,7.00
2023-02-19T09:34:48.192Z,7.05
2023-02-19T09:35:52.825Z,6.93
2023-02-19T09:36:55.622Z,6.94
2023-02-19T09:38:03.516Z,6.90
2023-02-19T09:39:12.578Z,6.93
2023-02-19T09:40:21.774Z,6.85
2023-02-19T09:41:29.320Z,6.92
2023-02-19T09:42:37.215Z,7.06
2023-02-19T09:43:39.243Z,7.06
2023-02-19T09:44:48.043Z,7.05
2023-02-19T09:46:10.604Z,7.10
2023-02-19T09:47:19.488Z,7.21
2023-02-19T09:48:24.157Z,7.14
2023-02-19T09:49:34.770Z,7.18
2023-02-19T09:50:42.075Z,7.21
2023-02-19T09:51:52.063Z,7.09
2023-02-19T09:53:02.793Z,7.18
2023-02-19T09:54:10.709Z,7.32
2023-02-19T09:55:19.693Z,7.33
2023-02-19T09:56:22.531Z,7.45
2023-02-19T09:57:29.003Z,7.54
2023-02-19T09:58:39.019Z,7.63
2023-02-19T09:59:47.806Z,7.54
2023-02-19T10:00:53.929Z,7.47
2023-02-19T10:02:07.556Z,7.46
2023-02-19T10:03:15.106Z,7.34
2023-02-19T10:04:19.937Z,7.21
2023-02-19T10:05:23.659Z,7.32
2023-02-19T10:06:30.600Z,7.34
2023-02-19T10:07:38.868Z,7.30
2023-02-19T10:08:44.822Z,7.42
2023-02-19T10:09:56.783Z,7.43
2023-02-19T10:11:00.325Z,7.40
2023-02-19T10:12:05.604Z,7.29
2023-02-19T10:13:20.692Z,7.22
2023-02-19T10:14:35.592Z,7.31
2023-02-19T10:15:43.234Z,7.36
2023-02-19T10:16:51.249Z,7.54
2023-02-19T10:17:53.509Z,7.57
2023-02-19T10:18:59.339Z,7.63
2023-02-19T10:20:03.543Z,7.71
2023-02-19T10:21:09.474Z,7.74
2023-02-19T10:22:16.086Z,7.94
2023-02-19T10:23:18.478Z,7.56
2023-02-19T10:24:28.151Z,7.67
2023-02-19T10:25:49.018Z,7.59
2023-02-19T10:27:02.062Z,7.67
2023-02-19T10:28:13.386Z,7.79
2023-02-19T10:29:23.879Z,7.81
2023-02-19T10:30:34.761Z,7.95
2023-02-19T10:31:42.904Z,7.85
2023-02-19T10:32:59.850Z,7.91
2023-02-19T10:34:07.763Z,8.03
2023-02-19T10:35:12.300Z,7.97
2023-02-19T10:36:31.296Z,7.70
2023-02-19T10:37:34.682Z,7.61
2023-02-19T10:38:43.870Z,7.78
2023-02-19T10:39:48.063Z,7.76
2023-02-19T10:40:59.306Z,7.80
2023-02-19T10:42:01.380Z,7.72
2023-02-19T10:43:08.154Z,7.80
2023-02-19T10:44:21.628Z,7.84
2023-02-19T10:45:31.981Z,7.70
2023-02-19T10:46:42.289Z,7.69
2023-02-19T10:47:49.407Z,7.80
2023-02-19T10:48:57.647Z,7.73
2023-02-19T10:50:04.017Z,7.69
2023-02-19T10:51:12.698Z,7.77
2023-02-19T10:52:20.536Z,7.62
2023-02-19T10:53:26.345Z,7.71
2023-02-19T10:54:32.293Z,7.61
2023-02-19T10:55:40.916Z,7.48
2023-02-19T10:56:46.059Z,7.56
2023-02-19T10:57:53.629Z,7.67
2023-02-19T10:59:00.445Z,7.69
2023-02-19T11:00:23.062Z,7.74
2023-02-19T11:01:27.193Z,7.69
2023-02-19T11:02:35.661Z,7.75
2023-02-19T11:03:39.905Z,7.80
2023-02-19T11:04:45.079Z,7.55
2023-02-19T11:06:04.326Z,7.61
2023-02-19T11:07:13.803Z,7.70
2023-02-19T11:08:22.379Z,7.58
2023-02-19T11:09:35.244Z,7.70
2023-02-19T11:10:42.481Z,7.72
2023-02-19T11:11:53.930Z,7.78
2023-02-19T11:13:02.980Z,7.77
2023-02-19T11:14:16.695Z,7.80
2023-02-19T11:15:22.810Z,7.92
2023-02-19T11:16:40.713Z,7.89
2023-02-19T11:17:49.653Z,7.82
2023-02-19T11:18:59.692Z,7.90
2023-02-19T11:20:10.465Z,7.82
2023-02-19T11:21:28.954Z,7.95
2023-02-19T11:22:35.734Z,7.75
2023-02-19T11:23:44.450Z,7.59
2023-02-19T11:24:57.814Z,7.48
2023-02-19T11:26:11.552Z,7.57
2023-02-19T11:27:22.284Z,7.42
2023-02-19T11:28:33.995Z,7.39
2023-02-19T11:29:40.010Z,7.51
2023-02-19T11:30:43.118Z,7.65
2023-02-19T11:31:48.078Z,7.41
2023-02-19T11:32:53.325Z,7.49
2023-02-19T11:34:02.745Z,7.47
2023-02-19T11:35:17.872Z,7.44
2023-02-19T11:36:34.835Z,7.46
2023-02-19T11:37:39.770Z,7.57
2023-02-19T11:38:45.001Z,7.52
2023-02-19T11:39:52.042Z,7.48
2023-02-19T11:41:04.486Z,7.37
2023-02-19T11:42:23.951Z,7.26
2023-02-19T11:43:42.600Z,7.16
2023-02-19T11:44:56.341Z,7.20
2023-02-19T11:46:07.246Z,7.11
2023-02-19T11:47:41.014Z,7.26
2023-02-19T11:49:07.592Z,7.35
2023-02-19T11:50:22.836Z,7.34
2023-02-19T11:51:40.756Z,7.44
2023-02-19T11:52:53.865Z,7.53
2023-02-19T11:54:09.647Z,7.65
2023-02-19T11:55:24.306Z,7.94
2023-02-19T11:56:34.171Z,7.98
2023-02-19T11:57:44.644Z,7.95
2023-02-19T11:59:01.070Z,8.00
2023-02-19T12:00:21.374Z,8.03
2023-02-19T12:01:37.821Z,7.93
2023-02-19T12:03:18.286Z,8.05
2023-02-19T12:05:07.217Z,8.32
2023-02-19T12:06:26.206Z,8.31
2023-02-19T12:08:13.473Z,8.24
2023-02-19T12:09:38.421Z,8.08
2023-02-19T12:11:00.283Z,8.36
2023-02-19T12:12:24.783Z,8.36
2023-02-19T12:13:38.909Z,8.37
2023-02-19T12:15:05.844Z,8.40
2023-02-19T12:16:24.136Z,8.57
2023-02-19T12:17:43.691Z,8.58
2023-02-19T12:19:06.296Z,8.54
2023-02-19T12:20:25.622Z,8.54
2023-02-19T12:21:42.438Z,8.73
2023-02-19T12:22:56.717Z,8.45
2023-02-19T12:24:37.662Z,8.51
2023-02-19T12:25:55.224Z,8.28
2023-02-19T12:27:16.710Z,8.26
2023-02-19T12:28:46.789Z,8.12
2023-02-19T12:30:11.295Z,7.88
2023-02-19T12:31:41.581Z,7.92
2023-02-19T12:33:01.764Z,7.77
2023-02-19T12:34:38.060Z,7.79
2023-02-19T12:36:04.633Z,7.97
2023-02-19T12:37:18.823Z,8.02
2023-02-19T12:38:26.110Z,8.15
2023-02-19T12:39:39.398Z,7.93
2023-02-19T12:41:00.794Z,7.92
2023-02-19T12:42:11.784Z,8.20
2023-02-19T12:43:20.437Z,8.35
2023-02-19T12:44:36.238Z,8.30
2023-02-19T12:45:42.982Z,8.37
2023-02-19T12:46:52.172Z,8.48
2023-02-19T12:48:01.829Z,8.34
2023-02-19T12:49:14.338Z,8.39
2023-02-19T12:50:21.637Z,8.32
2023-02-19T12:51:34.158Z,8.57
2023-02-19T12:52:41.056Z,8.82
2023-02-19T12:53:50.874Z,8.67
2023-02-19T12:54:58.120Z,8.74
2023-02-19T12:56:03.982Z,8.62
2023-02-19T12:57:14.379Z,8.41
2023-02-19T12:58:30.298Z,8.23
2023-02-19T12:59:38.337Z,8.36
2023-02-19T13:00:45.176Z,8.43
2023-02-19T13:01:55.597Z,8.24
2023-02-19T13:03:04.399Z,8.30
2023-02-19T13:04:22.345Z,8.21
2023-02-19T13:05:35.710Z,8.21
2023-02-19T13:06:48.331Z,7.97
2023-02-19T13:08:05.177Z,7.80
2023-02-19T13:09:13.338Z,7.71
2023-02-19T13:10:28.038Z,7.62
2023-02-19T13:11:36.350Z,7.60
2023-02-19T13:12:45.189Z,7.61
2023-02-19T13:13:58.049Z,7.58
2023-02-19T13:15:06.481Z,7.54
2023-02-19T13:16:15.097Z,7.63
2023-02-19T13:17:26.949Z,7.79
2023-02-19T13:18:35.759Z,7.87
2023-02-19T13:19:42.266Z,8.03
2023-02-19T13:20:49.022Z,8.10
2023-02-19T13:22:18.774Z,7.82
2023-02-19T13:23:40.566Z,7.97
2023-02-19T13:24:48.732Z,7.96
2023-02-19T13:26:09.768Z,7.91
2023-02-19T13:27:41.816Z,7.91
2023-02-19T13:29:10.930Z,7.55
2023-02-19T13:30:35.425Z,7.60
2023-02-19T13:32:02.046Z,7.68
2023-02-19T13:33:25.742Z,7.50
2023-02-19T13:34:47.951Z,7.53
2023-02-19T13:36:08.118Z,7.58
2023-02-19T13:37:15.704Z,7.55
2023-02-19T13:38:18.011Z,7.60
2023-02-19T13:39:31.338Z,7.52
2023-02-19T13:40:38.284Z,7.37
2023-02-19T13:41:52.902Z,7.29
2023-02-19T13:42:57.237Z,7.20
2023-02-19T13:44:05.582Z,7.02
2023-02-19T13:45:08.193Z,6.91
2023-02-19T13:46:15.759Z,6.83
2023-02-19T13:47:51.727Z,6.79
2023-02-19T13:49:41.250Z,6.76
2023-02-19T13:50:48.864Z,6.73
2023-02-19T13:51:51.913Z,6.71
2023-02-19T13:53:00.435Z,6.79
2023-02-19T13:54:14.838Z,6.75
2023-02-19T13:55:50.960Z,6.76
2023-02-19T13:57:28.617Z,6.80
2023-02-19T13:58:53.052Z,6.79
2023-02-19T13:59:59.004Z,6.79
2023-02-19T14:01:02.528Z,6.74
2023-02-19T14:02:28.962Z,6.56
2023-02-19T14:03:45.358Z,6.44
2023-02-19T14:04:55.581Z,6.40
2023-02-19T14:06:00.315Z,6.26
2023-02-19T14:07:40.714Z,6.04
2023-02-19T14:09:00.528Z,5.96
2023-02-19T14:10:03.006Z,5.90
2023-02-19T14:11:08.612Z,5.86
2023-02-19T14:12:20.614Z,5.93
2023-02-19T14:13:58.276Z,5.83
2023-02-19T14:15:35.565Z,5.88
2023-02-19T14:16:55.022Z,6.00
2023-02-19T14:17:59.778Z,5.98
2023-02-19T14:19:01.912Z,5.98
2023-02-19T14:20:42.046Z,5.99
2023-02-19T14:21:44.115Z,6.12
2023-02-19T14:23:01.704Z,6.26
2023-02-19T14:24:14.097Z,6.41
2023-02-19T14:25:28.421Z,6.35
2023-02-19T14:26:37.576Z,6.38
2023-02-19T14:27:39.683Z,6.43
2023-02-19T14:28:48.382Z,6.47
2023-02-19T14:29:50.697Z,6.54
2023-02-19T14:30:58.346Z,6.57
2023-02-19T14:32:05.333Z,6.68
2023-02-19T14:33:15.067Z,6.59
2023-02-19T14:34:22.926Z,6.42
2023-02-19T14:35:31.060Z,6.53
2023-02-19T14:36:49.009Z,6.55
2023-02-19T14:37:54.951Z,6.41
2023-02-19T14:39:02.666Z,6.39
2023-02-19T14:40:17.528Z,6.53
2023-02-19T14:41:24.454Z,6.32
2023-02-19T14:42:33.617Z,6.35
2023-02-19T14:43:39.966Z,6.30
2023-02-19T14:44:48.704Z,6.36
2023-02-19T14:45:57.765Z,6.35
2023-02-19T14:47:07.232Z,6.38
2023-02-19T14:48:17.189Z,6.27
2023-02-19T14:49:27.806Z,6.26
2023-02-19T14:50:31.619Z,6.27
2023-02-19T14:51:39.286Z,6.29
2023-02-19T14:52:46.757Z,6.37
2023-02-19T14:53:52.981Z,6.30
2023-02-19T14:54:58.469Z,6.35
2023-02-19T14:56:05.903Z,6.33
2023-02-19T14:57:16.169Z,6.34
2023-02-19T14:58:25.740Z,6.28
2023-02-19T14:59:32.793Z,6.32
2023-02-19T15:00:37.426Z,6.40
2023-02-19T15:01:43.248Z,6.50
2023-02-19T15:02:47.916Z,6.54
2023-02-19T15:03:50.393Z,6.47
2023-02-19T15:04:56.112Z,6.59
2023-02-19T15:06:03.484Z,6.57
2023-02-19T15:07:12.887Z,6.64
2023-02-19T15:08:23.595Z,6.75
2023-02-19T15:09:33.901Z,6.79
2023-02-19T15:10:37.300Z,6.66
2023-02-19T15:11:46.905Z,6.65
2023-02-19T15:12:53.328Z,6.66
2023-02-19T15:14:00.481Z,6.66
2023-02-19T15:15:08.929Z,6.54
2023-02-19T15:16:13.726Z,6.54
2023-02-19T15:17:27.075Z,6.48
2023-02-19T15:18:37.954Z,6.50
2023-02-19T15:19:40.368Z,6.54
2023-02-19T15:20:46.376Z,6.57
2023-02-19T15:21:51.773Z,6.46
2023-02-19T15:22:55.209Z,6.47
2023-02-19T15:24:02.746Z,6.45
2023-02-19T15:25:06.369Z,6.45
2023-02-19T15:26:23.803Z,6.40
2023-02-19T15:27:29.151Z,6.28
2023-02-19T15:28:36.445Z,6.28
2023-02-19T15:29:45.695Z,6.22
2023-02-19T15:30:50.433Z,6.20
2023-02-19T15:31:57.317Z,6.24
2023-02-19T15:33:01.286Z,6.27